EWG7268 EDDH-LPMA
Flight info
| Callsign | EWG7268 |
|---|---|
| Flight time | N/A |
| Altitude | 34000 |
| Route | WSN5G WSN N125 ONTAZ DCT NIK/N0443F350 DCT KOVIN DCT NIDUV DCT KIHVI UN872 ERIGA UN741 AZFIC DCT LOTEE DCT PINEK DCT LIDRO |
| Aircraft | A320/M-SDE3FGHIRWY/LB1 |
Departure
| Time | N/A |
|---|---|
| Airport | Hamburg Helmut Schmidt Airport (EDDH) |
Arrival
| Time | 2026-05-05 13:40 |
|---|---|
| Airport | Cristiano Ronaldo International Airport (LPMA) |
| Time | Latitude | Longitude | Altitude | Speed | Heading |
|---|---|---|---|---|---|
| 2026-05-05 12:30 | 36.24309 | -13.84717 | 34215 ft | 403 kts | 218° |
| 2026-05-05 12:31 | 36.19680 | -13.88644 | 34217 ft | 403 kts | 217° |
| 2026-05-05 12:31 | 36.15044 | -13.92562 | 34209 ft | 403 kts | 218° |
| 2026-05-05 12:32 | 36.10413 | -13.96475 | 34218 ft | 402 kts | 218° |
| 2026-05-05 12:32 | 36.05795 | -14.00380 | 34222 ft | 402 kts | 218° |
| 2026-05-05 12:33 | 36.01176 | -14.04278 | 34220 ft | 402 kts | 218° |
| 2026-05-05 12:33 | 35.96556 | -14.08172 | 34222 ft | 402 kts | 218° |
| 2026-05-05 12:34 | 35.91936 | -14.12052 | 34221 ft | 402 kts | 218° |
| 2026-05-05 12:34 | 35.87309 | -14.15927 | 34202 ft | 402 kts | 218° |
| 2026-05-05 12:35 | 35.82687 | -14.19805 | 34205 ft | 402 kts | 218° |
| 2026-05-05 12:35 | 35.78060 | -14.23680 | 34214 ft | 402 kts | 218° |
| 2026-05-05 12:36 | 35.73439 | -14.27550 | 34218 ft | 401 kts | 218° |
| 2026-05-05 12:36 | 35.68818 | -14.31414 | 34215 ft | 401 kts | 218° |
| 2026-05-05 12:37 | 35.64194 | -14.35259 | 34214 ft | 401 kts | 218° |
| 2026-05-05 12:37 | 35.59570 | -14.39101 | 34202 ft | 401 kts | 218° |
| 2026-05-05 12:38 | 35.54949 | -14.42938 | 34205 ft | 401 kts | 218° |
| 2026-05-05 12:38 | 35.52636 | -14.44862 | 34205 ft | 401 kts | 218° |
| 2026-05-05 12:39 | 35.49371 | -14.47574 | 34206 ft | 401 kts | 218° |
| 2026-05-05 12:39 | 35.44746 | -14.51407 | 34207 ft | 401 kts | 218° |
| 2026-05-05 12:40 | 35.40121 | -14.55235 | 34204 ft | 401 kts | 218° |
| 2026-05-05 12:40 | 35.35497 | -14.59058 | 34194 ft | 401 kts | 217° |
| 2026-05-05 12:41 | 35.30870 | -14.62879 | 34190 ft | 401 kts | 217° |
| 2026-05-05 12:41 | 35.26234 | -14.66683 | 34192 ft | 401 kts | 217° |
| 2026-05-05 12:42 | 35.21603 | -14.70497 | 34195 ft | 401 kts | 217° |
| 2026-05-05 12:42 | 35.16999 | -14.74286 | 34202 ft | 401 kts | 217° |
| 2026-05-05 12:43 | 35.12798 | -14.77731 | 34199 ft | 401 kts | 217° |
| 2026-05-05 12:43 | 35.08161 | -14.81529 | 34199 ft | 401 kts | 217° |
| 2026-05-05 12:44 | 35.03522 | -14.85320 | 34197 ft | 401 kts | 217° |
| 2026-05-05 12:44 | 34.98879 | -14.89113 | 34201 ft | 401 kts | 217° |
| 2026-05-05 12:45 | 34.94243 | -14.92902 | 34191 ft | 401 kts | 217° |
| 2026-05-05 12:45 | 34.89605 | -14.96685 | 34196 ft | 401 kts | 217° |
| 2026-05-05 12:46 | 34.85747 | -14.99818 | 34200 ft | 401 kts | 217° |
| 2026-05-05 12:46 | 34.81111 | -15.03585 | 34181 ft | 400 kts | 217° |
| 2026-05-05 12:47 | 34.76477 | -15.07347 | 34176 ft | 401 kts | 217° |
| 2026-05-05 12:47 | 34.71831 | -15.11116 | 34174 ft | 402 kts | 217° |
| 2026-05-05 12:48 | 34.67180 | -15.14893 | 34175 ft | 402 kts | 217° |
| 2026-05-05 12:48 | 34.62522 | -15.18660 | 34179 ft | 402 kts | 217° |
| 2026-05-05 12:49 | 34.57848 | -15.22423 | 34177 ft | 402 kts | 217° |
| 2026-05-05 12:49 | 34.53184 | -15.26185 | 34170 ft | 403 kts | 217° |
| 2026-05-05 12:50 | 34.48514 | -15.29950 | 34171 ft | 403 kts | 217° |
| 2026-05-05 12:50 | 34.43860 | -15.33691 | 34164 ft | 404 kts | 217° |
| 2026-05-05 12:51 | 34.41517 | -15.35570 | 34014 ft | 402 kts | 217° |
| 2026-05-05 12:51 | 34.39203 | -15.37424 | 33749 ft | 396 kts | 217° |
| 2026-05-05 12:51 | 34.36910 | -15.39261 | 33482 ft | 393 kts | 217° |
| 2026-05-05 12:51 | 34.34636 | -15.41084 | 33209 ft | 391 kts | 217° |
| 2026-05-05 12:52 | 34.32374 | -15.42902 | 32943 ft | 389 kts | 217° |
| 2026-05-05 12:52 | 34.30119 | -15.44713 | 32681 ft | 387 kts | 217° |
| 2026-05-05 12:52 | 34.27875 | -15.46509 | 32420 ft | 385 kts | 217° |
| 2026-05-05 12:52 | 34.25640 | -15.48291 | 32162 ft | 384 kts | 216° |
| 2026-05-05 12:53 | 34.23410 | -15.50067 | 31884 ft | 384 kts | 216° |
| 2026-05-05 12:53 | 34.21180 | -15.51843 | 31630 ft | 384 kts | 216° |
| 2026-05-05 12:53 | 34.18959 | -15.53620 | 31382 ft | 382 kts | 216° |
| 2026-05-05 12:53 | 34.16751 | -15.55389 | 31133 ft | 380 kts | 216° |
| 2026-05-05 12:54 | 34.12355 | -15.58902 | 30633 ft | 377 kts | 216° |
| 2026-05-05 12:54 | 34.10167 | -15.60644 | 30393 ft | 375 kts | 216° |
| 2026-05-05 12:54 | 34.07994 | -15.62373 | 30154 ft | 374 kts | 216° |
| 2026-05-05 12:55 | 34.05828 | -15.64096 | 29861 ft | 372 kts | 216° |
| 2026-05-05 12:55 | 34.03672 | -15.65812 | 29581 ft | 369 kts | 215° |
| 2026-05-05 12:55 | 34.01530 | -15.67511 | 29302 ft | 368 kts | 215° |
| 2026-05-05 12:55 | 33.99397 | -15.69199 | 29030 ft | 366 kts | 215° |
| 2026-05-05 12:56 | 33.97271 | -15.70881 | 28746 ft | 365 kts | 216° |
| 2026-05-05 12:56 | 33.95149 | -15.72563 | 28467 ft | 365 kts | 216° |
| 2026-05-05 12:56 | 33.93027 | -15.74244 | 28211 ft | 364 kts | 216° |
| 2026-05-05 12:56 | 33.90915 | -15.75918 | 27941 ft | 363 kts | 216° |
| 2026-05-05 12:57 | 33.88830 | -15.77567 | 27690 ft | 362 kts | 216° |
| 2026-05-05 12:57 | 33.86727 | -15.79227 | 27428 ft | 360 kts | 215° |
| 2026-05-05 12:57 | 33.84632 | -15.80878 | 27172 ft | 359 kts | 215° |
| 2026-05-05 12:57 | 33.82546 | -15.82526 | 26918 ft | 358 kts | 216° |
| 2026-05-05 12:58 | 33.80470 | -15.84167 | 26664 ft | 356 kts | 216° |
| 2026-05-05 12:58 | 33.78402 | -15.85802 | 26414 ft | 355 kts | 216° |
| 2026-05-05 12:58 | 33.76340 | -15.87431 | 26167 ft | 354 kts | 215° |
| 2026-05-05 12:58 | 33.74285 | -15.89050 | 25921 ft | 353 kts | 215° |
| 2026-05-05 12:59 | 33.72236 | -15.90661 | 25679 ft | 352 kts | 215° |
| 2026-05-05 12:59 | 33.70192 | -15.92267 | 25444 ft | 350 kts | 215° |
| 2026-05-05 12:59 | 33.68153 | -15.93865 | 25188 ft | 349 kts | 215° |
| 2026-05-05 13:00 | 33.64073 | -15.97047 | 24717 ft | 349 kts | 215° |
| 2026-05-05 13:00 | 33.62035 | -15.98616 | 24492 ft | 347 kts | 214° |
| 2026-05-05 13:01 | 33.56010 | -16.03215 | 23179 ft | 339 kts | 214° |
| 2026-05-05 13:01 | 33.54030 | -16.04727 | 22734 ft | 336 kts | 214° |
| 2026-05-05 13:01 | 33.52065 | -16.06232 | 22309 ft | 334 kts | 215° |
| 2026-05-05 13:01 | 33.50117 | -16.07728 | 21881 ft | 332 kts | 215° |
| 2026-05-05 13:02 | 33.48196 | -16.09201 | 21457 ft | 331 kts | 215° |
| 2026-05-05 13:02 | 33.46257 | -16.10682 | 21036 ft | 330 kts | 214° |
| 2026-05-05 13:02 | 33.44325 | -16.12155 | 20621 ft | 329 kts | 215° |
| 2026-05-05 13:02 | 33.42397 | -16.13625 | 20205 ft | 329 kts | 215° |
| 2026-05-05 13:03 | 33.40469 | -16.15096 | 19787 ft | 328 kts | 215° |
| 2026-05-05 13:03 | 33.38522 | -16.16580 | 19367 ft | 328 kts | 215° |
| 2026-05-05 13:03 | 33.36593 | -16.18050 | 18961 ft | 330 kts | 215° |
| 2026-05-05 13:03 | 33.34649 | -16.19531 | 18541 ft | 333 kts | 216° |
| 2026-05-05 13:04 | 33.32687 | -16.21023 | 18084 ft | 336 kts | 216° |
| 2026-05-05 13:04 | 33.30734 | -16.22506 | 17663 ft | 338 kts | 215° |
| 2026-05-05 13:04 | 33.28738 | -16.24023 | 17241 ft | 341 kts | 215° |
| 2026-05-05 13:04 | 33.26752 | -16.25532 | 16973 ft | 336 kts | 214° |
| 2026-05-05 13:05 | 33.24772 | -16.27038 | 16468 ft | 337 kts | 214° |
| 2026-05-05 13:05 | 33.22823 | -16.28516 | 16044 ft | 326 kts | 214° |
| 2026-05-05 13:05 | 33.20921 | -16.29955 | 15621 ft | 313 kts | 214° |
| 2026-05-05 13:05 | 33.19138 | -16.31305 | 15254 ft | 304 kts | 214° |
| 2026-05-05 13:06 | 33.17356 | -16.32658 | 14880 ft | 303 kts | 214° |
| 2026-05-05 13:06 | 33.15575 | -16.34010 | 14503 ft | 303 kts | 214° |
| 2026-05-05 13:06 | 33.13783 | -16.35368 | 14025 ft | 307 kts | 215° |
| 2026-05-05 13:06 | 33.11984 | -16.36732 | 13608 ft | 306 kts | 214° |
| 2026-05-05 13:07 | 33.10193 | -16.38091 | 13232 ft | 305 kts | 213° |
| 2026-05-05 13:07 | 33.08400 | -16.39452 | 12845 ft | 304 kts | 213° |
| 2026-05-05 13:07 | 33.06619 | -16.40800 | 12475 ft | 303 kts | 214° |
| 2026-05-05 13:07 | 33.04844 | -16.42141 | 12086 ft | 301 kts | 213° |
| 2026-05-05 13:08 | 33.03071 | -16.43480 | 11690 ft | 302 kts | 213° |
| 2026-05-05 13:08 | 33.01283 | -16.44830 | 11192 ft | 305 kts | 213° |
| 2026-05-05 13:08 | 32.99510 | -16.46166 | 10656 ft | 298 kts | 213° |
| 2026-05-05 13:08 | 32.97781 | -16.47469 | 10137 ft | 291 kts | 213° |
| 2026-05-05 13:09 | 32.96093 | -16.48741 | 9637 ft | 282 kts | 213° |
| 2026-05-05 13:09 | 32.94466 | -16.49964 | 9248 ft | 271 kts | 212° |
| 2026-05-05 13:09 | 32.92912 | -16.51162 | 8849 ft | 262 kts | 217° |
| 2026-05-05 13:09 | 32.91545 | -16.52572 | 8475 ft | 258 kts | 222° |
| 2026-05-05 13:10 | 32.90221 | -16.53998 | 8100 ft | 256 kts | 221° |
| 2026-05-05 13:10 | 32.88898 | -16.55414 | 7717 ft | 256 kts | 221° |
| 2026-05-05 13:10 | 32.87564 | -16.56838 | 7301 ft | 258 kts | 221° |
| 2026-05-05 13:10 | 32.86225 | -16.58262 | 6892 ft | 259 kts | 221° |
| 2026-05-05 13:11 | 32.84883 | -16.59690 | 6473 ft | 259 kts | 221° |
| 2026-05-05 13:11 | 32.83544 | -16.61117 | 6027 ft | 256 kts | 220° |
| 2026-05-05 13:11 | 32.82210 | -16.62463 | 5578 ft | 247 kts | 214° |
| 2026-05-05 13:11 | 32.80734 | -16.63461 | 5127 ft | 243 kts | 202° |
| 2026-05-05 13:12 | 32.79148 | -16.64138 | 4663 ft | 242 kts | 197° |
| 2026-05-05 13:12 | 32.77547 | -16.64783 | 4210 ft | 243 kts | 196° |
| 2026-05-05 13:12 | 32.75971 | -16.65421 | 3757 ft | 236 kts | 195° |
| 2026-05-05 13:12 | 32.74444 | -16.66045 | 3309 ft | 229 kts | 194° |
| 2026-05-05 13:13 | 32.72960 | -16.66652 | 3073 ft | 225 kts | 195° |
| 2026-05-05 13:13 | 32.71483 | -16.67253 | 2815 ft | 223 kts | 193° |
| 2026-05-05 13:13 | 32.70032 | -16.67842 | 2558 ft | 219 kts | 195° |
| 2026-05-05 13:13 | 32.68602 | -16.68419 | 2310 ft | 216 kts | 194° |
| 2026-05-05 13:14 | 32.67180 | -16.68992 | 2083 ft | 214 kts | 194° |
| 2026-05-05 13:14 | 32.65801 | -16.69549 | 2003 ft | 204 kts | 195° |
| 2026-05-05 13:14 | 32.64503 | -16.70077 | 1994 ft | 194 kts | 195° |
| 2026-05-05 13:14 | 32.63268 | -16.70702 | 2028 ft | 197 kts | 207° |
| 2026-05-05 13:15 | 32.62188 | -16.71721 | 2018 ft | 197 kts | 226° |
| 2026-05-05 13:15 | 32.61426 | -16.72994 | 2016 ft | 184 kts | 242° |
| 2026-05-05 13:15 | 32.60981 | -16.74399 | 2010 ft | 180 kts | 257° |
| 2026-05-05 13:15 | 32.60842 | -16.75864 | 2010 ft | 176 kts | 273° |
| 2026-05-05 13:16 | 32.61004 | -16.77291 | 2005 ft | 174 kts | 287° |
| 2026-05-05 13:16 | 32.61464 | -16.78571 | 1900 ft | 163 kts | 307° |
| 2026-05-05 13:16 | 32.62214 | -16.79528 | 1658 ft | 154 kts | 327° |
| 2026-05-05 13:16 | 32.63113 | -16.80114 | 1443 ft | 145 kts | 345° |
| 2026-05-05 13:17 | 32.64088 | -16.80348 | 1255 ft | 139 kts | 1° |
| 2026-05-05 13:17 | 32.65051 | -16.80347 | 1067 ft | 137 kts | 2° |
| 2026-05-05 13:17 | 32.66008 | -16.80325 | 846 ft | 136 kts | 7° |
| 2026-05-05 13:17 | 32.66930 | -16.80113 | 759 ft | 135 kts | 20° |
| 2026-05-05 13:18 | 32.67777 | -16.79639 | 554 ft | 134 kts | 32° |
| 2026-05-05 13:18 | 32.68497 | -16.78936 | 368 ft | 135 kts | 43° |
| 2026-05-05 13:18 | 32.69170 | -16.78155 | 274 ft | 142 kts | 43° |
| 2026-05-05 13:18 | 32.69927 | -16.77259 | 848 ft | 165 kts | 43° |
| 2026-05-05 13:19 | 32.70749 | -16.76300 | 1747 ft | 171 kts | 46° |
| 2026-05-05 13:19 | 32.71553 | -16.75154 | 2146 ft | 191 kts | 58° |
| 2026-05-05 13:19 | 32.72210 | -16.73687 | 2563 ft | 210 kts | 69° |
| 2026-05-05 13:19 | 32.72628 | -16.71974 | 2941 ft | 222 kts | 79° |
| 2026-05-05 13:20 | 32.72755 | -16.70183 | 2995 ft | 220 kts | 90° |
| 2026-05-05 13:20 | 32.72588 | -16.68373 | 3010 ft | 222 kts | 103° |
| 2026-05-05 13:20 | 32.72133 | -16.66619 | 3010 ft | 225 kts | 113° |
| 2026-05-05 13:20 | 32.71381 | -16.64961 | 3011 ft | 227 kts | 123° |
| 2026-05-05 13:21 | 32.70395 | -16.63532 | 3007 ft | 228 kts | 134° |
| 2026-05-05 13:21 | 32.69156 | -16.62332 | 3009 ft | 231 kts | 146° |
| 2026-05-05 13:21 | 32.67723 | -16.61444 | 3009 ft | 233 kts | 156° |
| 2026-05-05 13:21 | 32.66172 | -16.60914 | 3006 ft | 233 kts | 167° |
| 2026-05-05 13:22 | 32.64554 | -16.60761 | 3012 ft | 236 kts | 180° |
| 2026-05-05 13:22 | 32.62920 | -16.61002 | 3020 ft | 238 kts | 187° |
| 2026-05-05 13:22 | 32.61326 | -16.61664 | 3035 ft | 248 kts | 201° |
| 2026-05-05 13:22 | 32.59827 | -16.62753 | 2970 ft | 256 kts | 215° |
| 2026-05-05 13:23 | 32.58579 | -16.64202 | 2990 ft | 249 kts | 228° |
| 2026-05-05 13:23 | 32.57499 | -16.65812 | 3010 ft | 249 kts | 229° |
| 2026-05-05 13:23 | 32.56414 | -16.67403 | 3005 ft | 247 kts | 227° |
| 2026-05-05 13:23 | 32.55329 | -16.68975 | 3001 ft | 243 kts | 230° |
| 2026-05-05 13:24 | 32.54283 | -16.70494 | 3005 ft | 234 kts | 231° |
| 2026-05-05 13:24 | 32.53248 | -16.71996 | 2997 ft | 235 kts | 231° |
| 2026-05-05 13:24 | 32.52212 | -16.73498 | 3005 ft | 236 kts | 231° |
| 2026-05-05 13:24 | 32.51174 | -16.75003 | 3004 ft | 236 kts | 231° |
| 2026-05-05 13:25 | 32.50135 | -16.76507 | 3003 ft | 236 kts | 231° |
| 2026-05-05 13:25 | 32.49117 | -16.77987 | 2997 ft | 224 kts | 231° |
| 2026-05-05 13:25 | 32.48157 | -16.79382 | 3002 ft | 216 kts | 231° |
| 2026-05-05 13:25 | 32.47209 | -16.80758 | 2994 ft | 215 kts | 231° |
| 2026-05-05 13:26 | 32.46263 | -16.82131 | 2990 ft | 215 kts | 231° |
| 2026-05-05 13:26 | 32.45642 | -16.83043 | 2994 ft | 215 kts | 234° |
| 2026-05-05 13:26 | 32.45094 | -16.84652 | 3000 ft | 213 kts | 267° |
| 2026-05-05 13:26 | 32.45120 | -16.86414 | 2998 ft | 215 kts | 271° |
| 2026-05-05 13:27 | 32.45109 | -16.88182 | 2982 ft | 215 kts | 261° |
| 2026-05-05 13:27 | 32.44528 | -16.89782 | 2988 ft | 214 kts | 230° |
| 2026-05-05 13:27 | 32.43311 | -16.90776 | 2987 ft | 216 kts | 198° |
| 2026-05-05 13:27 | 32.41822 | -16.90847 | 2980 ft | 219 kts | 166° |
| 2026-05-05 13:28 | 32.40517 | -16.89941 | 2980 ft | 221 kts | 132° |
| 2026-05-05 13:28 | 32.39839 | -16.88327 | 2983 ft | 224 kts | 98° |
| 2026-05-05 13:28 | 32.40025 | -16.86518 | 2983 ft | 225 kts | 64° |
| 2026-05-05 13:28 | 32.41067 | -16.85100 | 2998 ft | 239 kts | 28° |
| 2026-05-05 13:29 | 32.42609 | -16.84328 | 2988 ft | 243 kts | 19° |
| 2026-05-05 13:29 | 32.44201 | -16.83632 | 2999 ft | 244 kts | 19° |
| 2026-05-05 13:29 | 32.45798 | -16.82952 | 2998 ft | 241 kts | 15° |
| 2026-05-05 13:29 | 32.47385 | -16.82828 | 2997 ft | 223 kts | 347° |
| 2026-05-05 13:30 | 32.48790 | -16.83512 | 2998 ft | 218 kts | 322° |
| 2026-05-05 13:30 | 32.49802 | -16.84821 | 3004 ft | 216 kts | 297° |
| 2026-05-05 13:30 | 32.50240 | -16.86493 | 3006 ft | 214 kts | 272° |
| 2026-05-05 13:30 | 32.50039 | -16.88226 | 2990 ft | 214 kts | 248° |
| 2026-05-05 13:31 | 32.49241 | -16.89698 | 2991 ft | 215 kts | 224° |
| 2026-05-05 13:31 | 32.47991 | -16.90657 | 2981 ft | 216 kts | 204° |
| 2026-05-05 13:31 | 32.46591 | -16.91328 | 2989 ft | 217 kts | 201° |
| 2026-05-05 13:31 | 32.45175 | -16.91948 | 2989 ft | 217 kts | 201° |
| 2026-05-05 13:32 | 32.43752 | -16.92560 | 2989 ft | 217 kts | 201° |
| 2026-05-05 13:32 | 32.42333 | -16.93172 | 2983 ft | 217 kts | 201° |
| 2026-05-05 13:32 | 32.40883 | -16.93653 | 2983 ft | 218 kts | 186° |
| 2026-05-05 13:32 | 32.39376 | -16.93463 | 2973 ft | 221 kts | 162° |
| 2026-05-05 13:33 | 32.38071 | -16.92520 | 2982 ft | 223 kts | 135° |
| 2026-05-05 13:33 | 32.37248 | -16.91001 | 2983 ft | 225 kts | 109° |
| 2026-05-05 13:33 | 32.37066 | -16.89180 | 2976 ft | 225 kts | 82° |
| 2026-05-05 13:33 | 32.37580 | -16.87448 | 2991 ft | 225 kts | 55° |
| 2026-05-05 13:34 | 32.38687 | -16.86167 | 2991 ft | 224 kts | 28° |
| 2026-05-05 13:34 | 32.40104 | -16.85414 | 2992 ft | 223 kts | 20° |
| 2026-05-05 13:34 | 32.41560 | -16.84764 | 2994 ft | 224 kts | 19° |
| 2026-05-05 13:34 | 32.43021 | -16.84133 | 2997 ft | 224 kts | 19° |
| 2026-05-05 13:35 | 32.44484 | -16.83504 | 2998 ft | 224 kts | 19° |
| 2026-05-05 13:35 | 32.46006 | -16.82849 | 2985 ft | 240 kts | 18° |
| 2026-05-05 13:35 | 32.47593 | -16.82176 | 2989 ft | 244 kts | 18° |
| 2026-05-05 13:35 | 32.49191 | -16.81500 | 2988 ft | 244 kts | 18° |
| 2026-05-05 13:36 | 32.50792 | -16.80823 | 2995 ft | 244 kts | 17° |
| 2026-05-05 13:36 | 32.52443 | -16.80397 | 3003 ft | 243 kts | 5° |
| 2026-05-05 13:36 | 32.54127 | -16.80336 | 2879 ft | 241 kts | 0° |
| 2026-05-05 13:36 | 32.55753 | -16.80340 | 2718 ft | 224 kts | 2° |
| 2026-05-05 13:37 | 32.57243 | -16.80345 | 2598 ft | 205 kts | 4° |
| 2026-05-05 13:37 | 32.58617 | -16.80348 | 2463 ft | 190 kts | 2° |
| 2026-05-05 13:37 | 32.59908 | -16.80351 | 2181 ft | 185 kts | 4° |
| 2026-05-05 13:37 | 32.61208 | -16.80348 | 1794 ft | 186 kts | 2° |
| 2026-05-05 13:38 | 32.62480 | -16.80347 | 1540 ft | 177 kts | 4° |
| 2026-05-05 13:38 | 32.63665 | -16.80350 | 1324 ft | 162 kts | 4° |
| 2026-05-05 13:38 | 32.64734 | -16.80354 | 1127 ft | 146 kts | 4° |
| 2026-05-05 13:38 | 32.65728 | -16.80356 | 916 ft | 141 kts | 3° |
| 2026-05-05 13:39 | 32.66686 | -16.80254 | 731 ft | 136 kts | 16° |
| 2026-05-05 13:39 | 32.67561 | -16.79843 | 533 ft | 135 kts | 29° |
| 2026-05-05 13:39 | 32.68297 | -16.79167 | 398 ft | 135 kts | 44° |
| 2026-05-05 13:39 | 32.68973 | -16.78399 | 206 ft | 135 kts | 43° |
| 2026-05-05 13:40 | 32.69592 | -16.77674 | 200 ft | 101 kts | 42° |
| 2026-05-05 13:40 | 32.69905 | -16.77311 | 208 ft | 32 kts | 45° |
| 2026-05-05 13:40 | 32.69958 | -16.77177 | 207 ft | 16 kts | 141° |
| 2026-05-05 13:40 | 32.69866 | -16.77168 | 193 ft | 17 kts | 194° |
| 2026-05-05 13:41 | 32.69773 | -16.77261 | 183 ft | 17 kts | 225° |
| 2026-05-05 13:41 | 32.69690 | -16.77360 | 182 ft | 16 kts | 227° |
| 2026-05-05 13:41 | 32.69613 | -16.77457 | 180 ft | 16 kts | 226° |
| 2026-05-05 13:41 | 32.69541 | -16.77547 | 178 ft | 12 kts | 226° |
| 2026-05-05 13:42 | 32.69491 | -16.77536 | 176 ft | 5 kts | 135° |
| 2026-05-05 13:42 | 32.69473 | -16.77515 | 176 ft | 2 kts | 136° |
| 2026-05-05 13:42 | 32.69468 | -16.77510 | 176 ft | 0 kts | 137° |